Details From EETN - TALLINN
To EEKE - KURESSAARE
Flight Number -
Tags generated
Created
Modified
Stats Distance 101 nm / 188 km
Max Altitude 7,900 ft / 2,408 m
Waypoints 3
Social Downloads 1
Likes 0
Share VATSIM

Download

Looking for another format? Having issues loading an existing format? Contact us
Advertisement - Login to hide

Notes

Basic altitude profile: - Ascent Rate: 2500ft/min - Ascent Speed: 250kts - Cruise Altitude: 35000ft - Cruise Speed: 420kts - Descent Rate: 1500ft/min - Descent Speed: 250kts Options: - Use NATs: yes - Use PACOTS: yes - Use low airways: yes - Use high airways: yes

Route

EETN MASIS EEKE

ID Type Via Altitude Latitude Longitude Leg Dist Tot Dist Heading (true) Name
O EETN APT - 0 ft / 0 m 59.41326˚ 24.83280˚ - 0 nm - TALLINN
MASIS FIX - 7,900 ft / 2,408 m 58.65583˚ 23.36917˚ 64 nm 64 nm 225° / 224° -
O EEKE APT - 0 ft / 0 m 58.23046˚ 22.51124˚ 37 nm 101 nm 227° / 226° KURESSAARE

Altitude Profile

Advertisement - Login to hide

EETN

Details ICAO EETN (TLL)
Name TALLINN
Region Estonia
Timezone Europe/Tallinn (UTC+2.0)
Stats Elevation 131 ft / 40 m (AMSL)
Location 59.413257° 24.832803°
Runways 1
Magnetic Variation 8.636° E

METAR

EETN 161520Z 17005KT 130V200 5000 -SN BR OVC003 01/00 Q1001 R08/290195 NOSIG

Decode

TAF

TAF TAF EETN 161130Z 1612/1712 17006KT 4000 BR OVC004 TEMPO 1612/1616 1200 DZ BR OVC002 PROB40 TEMPO 1616/1710 0600 FZDZ FZFG VV001

Decode

Departure Runways

ID Width Length Bearing (true) Bearing (mag) Surface Threshold Offset Overrun Length
08 148 ft / 45 m 10,023 ft / 3,055 m 90.24° 81.60° Asphalt 820 ft / 250 m 0 ft / 0 m
26 148 ft / 45 m 10,023 ft / 3,055 m 270.28° 261.64° Asphalt 0 ft / 0 m 184 ft / 56 m

EEKE

Details ICAO EEKE (URE)
Name KURESSAARE
Region Estonia
Timezone Europe/Tallinn (UTC+2.0)
Stats Elevation 14 ft / 4 m (AMSL)
Location 58.230459° 22.511240°
Runways 2
Magnetic Variation 7.493° E

METAR

EEKE 161450Z AUTO 22005KT 9999NDV FEW037 OVC045 02/02 Q1000

Decode

TAF

Not found

Destination Runways

ID Width Length Bearing (true) Bearing (mag) Surface Threshold Offset Overrun Length
05 98 ft / 30 m 2,615 ft / 797 m 58.67° 51.18° Asphalt 0 ft / 0 m 197 ft / 60 m
17 98 ft / 30 m 4,973 ft / 1,516 m 179.57° 172.08° Asphalt 0 ft / 0 m 197 ft / 60 m
23 98 ft / 30 m 2,615 ft / 797 m 238.68° 231.19° Asphalt 0 ft / 0 m 197 ft / 60 m
35 98 ft / 30 m 4,973 ft / 1,516 m 359.58° 352.09° Asphalt 0 ft / 0 m 197 ft / 60 m

Popular Alternatives